sensor_id;sensor_type;location;lat;lon;timestamp;pressure;altitude;pressure_sealevel;temperature;humidity
71151;BME280;59071;42.138;24.768;2023-11-22T00:00:14;99049.22;;;9.75;71.31
71151;BME280;59071;42.138;24.768;2023-11-22T00:02:39;99046.34;;;9.77;70.81
71151;BME280;59071;42.138;24.768;2023-11-22T00:05:06;99056.00;;;9.65;70.95
71151;BME280;59071;42.138;24.768;2023-11-22T00:07:32;99053.91;;;9.73;73.08
71151;BME280;59071;42.138;24.768;2023-11-22T00:09:58;99038.41;;;9.70;72.94
71151;BME280;59071;42.138;24.768;2023-11-22T00:12:24;99042.94;;;9.63;73.04
71151;BME280;59071;42.138;24.768;2023-11-22T00:14:50;99034.94;;;9.70;71.92
71151;BME280;59071;42.138;24.768;2023-11-22T00:17:16;99033.94;;;9.64;69.84
71151;BME280;59071;42.138;24.768;2023-11-22T00:19:43;99032.19;;;9.83;70.30
71151;BME280;59071;42.138;24.768;2023-11-22T00:22:10;99038.06;;;9.92;69.74
71151;BME280;59071;42.138;24.768;2023-11-22T00:24:41;99037.38;;;9.71;70.13
71151;BME280;59071;42.138;24.768;2023-11-22T00:27:07;99027.38;;;9.67;70.43
71151;BME280;59071;42.138;24.768;2023-11-22T00:29:33;99022.97;;;9.86;69.75
71151;BME280;59071;42.138;24.768;2023-11-22T00:31:59;99028.53;;;9.46;71.16
71151;BME280;59071;42.138;24.768;2023-11-22T00:34:25;99029.72;;;9.50;70.26
71151;BME280;59071;42.138;24.768;2023-11-22T00:36:50;99037.69;;;9.50;71.06
71151;BME280;59071;42.138;24.768;2023-11-22T00:39:16;99040.28;;;9.63;69.85
71151;BME280;59071;42.138;24.768;2023-11-22T00:41:42;99033.72;;;9.34;71.19
71151;BME280;59071;42.138;24.768;2023-11-22T00:44:07;99033.56;;;9.61;69.24
71151;BME280;59071;42.138;24.768;2023-11-22T00:46:33;99026.88;;;9.51;69.66
71151;BME280;59071;42.138;24.768;2023-11-22T00:48:58;99012.97;;;9.56;69.98
71151;BME280;59071;42.138;24.768;2023-11-22T00:51:24;99025.50;;;9.74;69.05
71151;BME280;59071;42.138;24.768;2023-11-22T00:53:49;99027.38;;;9.67;69.59
71151;BME280;59071;42.138;24.768;2023-11-22T00:56:15;99027.06;;;9.56;69.43
71151;BME280;59071;42.138;24.768;2023-11-22T00:58:41;99040.19;;;9.76;69.60
71151;BME280;59071;42.138;24.768;2023-11-22T01:01:06;99039.69;;;9.61;69.71
71151;BME280;59071;42.138;24.768;2023-11-22T01:03:33;99028.72;;;9.83;68.46
71151;BME280;59071;42.138;24.768;2023-11-22T01:05:58;99028.72;;;9.83;68.92
71151;BME280;59071;42.138;24.768;2023-11-22T01:08:24;99028.06;;;9.87;68.79
71151;BME280;59071;42.138;24.768;2023-11-22T01:10:49;99014.19;;;9.53;69.13
71151;BME280;59071;42.138;24.768;2023-11-22T01:13:14;99008.47;;;9.82;68.41
71151;BME280;59071;42.138;24.768;2023-11-22T01:15:41;99009.63;;;9.92;68.15
71151;BME280;59071;42.138;24.768;2023-11-22T01:18:07;99008.31;;;9.76;69.04
71151;BME280;59071;42.138;24.768;2023-11-22T01:20:32;99013.97;;;9.55;69.34
71151;BME280;59071;42.138;24.768;2023-11-22T01:22:57;99008.31;;;9.76;67.55
71151;BME280;59071;42.138;24.768;2023-11-22T01:25:23;99018.13;;;9.76;69.10
71151;BME280;59071;42.138;24.768;2023-11-22T01:27:48;99013.41;;;10.03;67.86
71151;BME280;59071;42.138;24.768;2023-11-22T01:30:13;99016.81;;;9.92;67.42
71151;BME280;59071;42.138;24.768;2023-11-22T01:32:39;99012.31;;;9.86;68.57
71151;BME280;59071;42.138;24.768;2023-11-22T01:35:05;99017.94;;;9.71;68.40
71151;BME280;59071;42.138;24.768;2023-11-22T01:37:31;99023.53;;;9.63;68.96
71151;BME280;59071;42.138;24.768;2023-11-22T01:39:58;99015.25;;;9.77;67.85
71151;BME280;59071;42.138;24.768;2023-11-22T01:42:23;99006.03;;;9.80;68.38
71151;BME280;59071;42.138;24.768;2023-11-22T01:44:50;99001.69;;;9.86;67.45
71151;BME280;59071;42.138;24.768;2023-11-22T01:47:18;99005.31;;;9.66;68.79
71151;BME280;59071;42.138;24.768;2023-11-22T01:49:44;99010.13;;;9.83;68.06
71151;BME280;59071;42.138;24.768;2023-11-22T01:52:09;99005.13;;;9.68;68.64
71151;BME280;59071;42.138;24.768;2023-11-22T01:54:35;99003.94;;;9.89;67.09
71151;BME280;59071;42.138;24.768;2023-11-22T01:57:02;98998.88;;;10.06;66.75
71151;BME280;59071;42.138;24.768;2023-11-22T01:59:29;98993.94;;;9.84;67.55
71151;BME280;59071;42.138;24.768;2023-11-22T02:01:55;98998.22;;;10.10;67.05
71151;BME280;59071;42.138;24.768;2023-11-22T02:04:20;99002.31;;;10.13;66.66
71151;BME280;59071;42.138;24.768;2023-11-22T02:06:46;98983.25;;;9.91;68.06
71151;BME280;59071;42.138;24.768;2023-11-22T02:09:12;98992.97;;;10.04;67.39
71151;BME280;59071;42.138;24.768;2023-11-22T02:11:41;98984.53;;;9.88;68.14
71151;BME280;59071;42.138;24.768;2023-11-22T02:14:08;98985.72;;;9.67;68.80
71151;BME280;59071;42.138;24.768;2023-11-22T02:16:34;98992.59;;;9.75;68.74
71151;BME280;59071;42.138;24.768;2023-11-22T02:19:00;98996.25;;;9.49;70.44
71151;BME280;59071;42.138;24.768;2023-11-22T02:21:25;98998.59;;;9.32;71.76
71151;BME280;59071;42.138;24.768;2023-11-22T02:23:51;99001.75;;;9.54;70.96
71151;BME280;59071;42.138;24.768;2023-11-22T02:26:16;98993.59;;;9.49;70.35
71151;BME280;59071;42.138;24.768;2023-11-22T02:28:43;98977.47;;;9.44;70.62
71151;BME280;59071;42.138;24.768;2023-11-22T02:31:09;98960.75;;;9.68;69.34
71151;BME280;59071;42.138;24.768;2023-11-22T02:33:34;98982.09;;;9.55;70.44
71151;BME280;59071;42.138;24.768;2023-11-22T02:36:01;98979.88;;;9.52;69.85
71151;BME280;59071;42.138;24.768;2023-11-22T02:38:27;98981.91;;;9.56;70.67
71151;BME280;59071;42.138;24.768;2023-11-22T02:40:53;98983.78;;;9.74;69.31
71151;BME280;59071;42.138;24.768;2023-11-22T02:43:19;98984.63;;;9.75;69.39
71151;BME280;59071;42.138;24.768;2023-11-22T02:45:45;98983.91;;;10.11;67.61
71151;BME280;59071;42.138;24.768;2023-11-22T02:48:10;98978.72;;;9.98;68.31
71151;BME280;59071;42.138;24.768;2023-11-22T02:50:36;98960.16;;;9.66;69.77
71151;BME280;59071;42.138;24.768;2023-11-22T02:53:04;98977.47;;;9.75;70.63
71151;BME280;59071;42.138;24.768;2023-11-22T02:55:30;98985.19;;;9.52;71.22
71151;BME280;59071;42.138;24.768;2023-11-22T02:57:55;98980.41;;;9.35;72.39
71151;BME280;59071;42.138;24.768;2023-11-22T03:00:21;98987.28;;;9.43;72.18
71151;BME280;59071;42.138;24.768;2023-11-22T03:02:46;98999.44;;;9.57;71.06
71151;BME280;59071;42.138;24.768;2023-11-22T03:05:13;99003.25;;;9.36;71.69
71151;BME280;59071;42.138;24.768;2023-11-22T03:07:40;99008.03;;;9.21;72.34
71151;BME280;59071;42.138;24.768;2023-11-22T03:10:08;98995.97;;;9.25;73.11
71151;BME280;59071;42.138;24.768;2023-11-22T03:12:34;99003.50;;;9.28;72.28
71151;BME280;59071;42.138;24.768;2023-11-22T03:15:00;98990.34;;;9.47;71.45
71151;BME280;59071;42.138;24.768;2023-11-22T03:17:28;98982.63;;;9.38;72.38
71151;BME280;59071;42.138;24.768;2023-11-22T03:19:57;98984.34;;;9.26;73.20
71151;BME280;59071;42.138;24.768;2023-11-22T03:22:23;98979.50;;;9.16;73.43
71151;BME280;59071;42.138;24.768;2023-11-22T03:24:49;98977.56;;;9.30;72.56
71151;BME280;59071;42.138;24.768;2023-11-22T03:27:15;98962.59;;;9.43;71.97
71151;BME280;59071;42.138;24.768;2023-11-22T03:29:41;98941.75;;;9.08;73.58
71151;BME280;59071;42.138;24.768;2023-11-22T03:32:06;98946.97;;;8.89;74.26
71151;BME280;59071;42.138;24.768;2023-11-22T03:34:31;98948.53;;;9.04;74.20
71151;BME280;59071;42.138;24.768;2023-11-22T03:36:57;98943.16;;;9.42;73.49
71151;BME280;59071;42.138;24.768;2023-11-22T03:39:22;98954.13;;;9.20;73.94
71151;BME280;59071;42.138;24.768;2023-11-22T03:41:48;98967.41;;;9.20;73.80
71151;BME280;59071;42.138;24.768;2023-11-22T03:44:13;98976.50;;;8.99;73.78
71151;BME280;59071;42.138;24.768;2023-11-22T03:46:39;98991.59;;;9.06;74.05
71151;BME280;59071;42.138;24.768;2023-11-22T03:49:05;98994.84;;;9.08;73.55
71151;BME280;59071;42.138;24.768;2023-11-22T03:51:34;98993.75;;;8.84;74.67
71151;BME280;59071;42.138;24.768;2023-11-22T03:53:59;98988.47;;;8.70;75.73
71151;BME280;59071;42.138;24.768;2023-11-22T03:56:26;98981.09;;;8.79;75.71
71151;BME280;59071;42.138;24.768;2023-11-22T03:58:51;98985.41;;;9.18;74.00
71151;BME280;59071;42.138;24.768;2023-11-22T04:01:17;98983.47;;;9.32;72.45
71151;BME280;59071;42.138;24.768;2023-11-22T04:03:44;98992.13;;;9.21;73.25
71151;BME280;59071;42.138;24.768;2023-11-22T04:06:09;98979.97;;;9.00;74.13
71151;BME280;59071;42.138;24.768;2023-11-22T04:08:34;98981.53;;;9.14;73.03
71151;BME280;59071;42.138;24.768;2023-11-22T04:11:00;99004.59;;;9.20;73.87
71151;BME280;59071;42.138;24.768;2023-11-22T04:13:27;99003.59;;;9.15;73.19
71151;BME280;59071;42.138;24.768;2023-11-22T04:15:52;99007.09;;;9.09;73.92
71151;BME280;59071;42.138;24.768;2023-11-22T04:18:18;99004.16;;;9.24;73.83
71151;BME280;59071;42.138;24.768;2023-11-22T04:20:43;99010.41;;;9.43;72.43
71151;BME280;59071;42.138;24.768;2023-11-22T04:23:09;98992.56;;;9.11;74.02
71151;BME280;59071;42.138;24.768;2023-11-22T04:25:36;98994.09;;;9.32;73.15
71151;BME280;59071;42.138;24.768;2023-11-22T04:28:03;98990.84;;;9.62;71.78
71151;BME280;59071;42.138;24.768;2023-11-22T04:30:28;98993.56;;;9.17;72.96
71151;BME280;59071;42.138;24.768;2023-11-22T04:32:54;98998.38;;;8.95;74.34
71151;BME280;59071;42.138;24.768;2023-11-22T04:35:19;99011.41;;;9.03;74.88
71151;BME280;59071;42.138;24.768;2023-11-22T04:37:45;99030.38;;;9.07;74.22
71151;BME280;59071;42.138;24.768;2023-11-22T04:40:12;99031.97;;;9.14;74.20
71151;BME280;59071;42.138;24.768;2023-11-22T04:42:39;99013.94;;;9.23;73.93
71151;BME280;59071;42.138;24.768;2023-11-22T04:45:05;99014.81;;;9.17;74.31
71151;BME280;59071;42.138;24.768;2023-11-22T04:47:31;99020.91;;;9.17;73.96
71151;BME280;59071;42.138;24.768;2023-11-22T04:49:57;99038.56;;;9.05;75.02
71151;BME280;59071;42.138;24.768;2023-11-22T04:52:22;99049.03;;;9.70;76.45
71151;BME280;59071;42.138;24.768;2023-11-22T04:54:48;99063.59;;;10.43;73.08
71151;BME280;59071;42.138;24.768;2023-11-22T04:57:13;99068.63;;;10.95;69.69
71151;BME280;59071;42.138;24.768;2023-11-22T04:59:39;99056.03;;;11.21;68.17
71151;BME280;59071;42.138;24.768;2023-11-22T05:02:05;99067.94;;;11.37;67.23
71151;BME280;59071;42.138;24.768;2023-11-22T05:04:32;99068.59;;;11.62;65.10
71151;BME280;59071;42.138;24.768;2023-11-22T05:06:57;99073.78;;;11.57;63.91
71151;BME280;59071;42.138;24.768;2023-11-22T05:09:23;99084.03;;;11.72;64.81
71151;BME280;59071;42.138;24.768;2023-11-22T05:11:49;99091.94;;;12.09;67.14
71151;BME280;59071;42.138;24.768;2023-11-22T05:14:14;99096.81;;;12.24;63.38
71151;BME280;59071;42.138;24.768;2023-11-22T05:16:40;99089.28;;;12.21;62.43
71151;BME280;59071;42.138;24.768;2023-11-22T05:19:05;99097.88;;;11.81;62.45
71151;BME280;59071;42.138;24.768;2023-11-22T05:21:31;99099.69;;;11.80;63.21
71151;BME280;59071;42.138;24.768;2023-11-22T05:23:57;99097.31;;;11.60;62.71
71151;BME280;59071;42.138;24.768;2023-11-22T05:26:23;99081.84;;;11.39;63.45
71151;BME280;59071;42.138;24.768;2023-11-22T05:28:48;99080.94;;;11.45;63.38
71151;BME280;59071;42.138;24.768;2023-11-22T05:31:14;99077.94;;;11.53;62.23
71151;BME280;59071;42.138;24.768;2023-11-22T05:33:40;99083.75;;;11.50;65.60
71151;BME280;59071;42.138;24.768;2023-11-22T05:36:06;99101.13;;;11.83;64.65
71151;BME280;59071;42.138;24.768;2023-11-22T05:38:31;99108.41;;;12.06;63.01
71151;BME280;59071;42.138;24.768;2023-11-22T05:40:58;99111.22;;;12.23;61.01
71151;BME280;59071;42.138;24.768;2023-11-22T05:43:24;99113.19;;;12.39;61.10
71151;BME280;59071;42.138;24.768;2023-11-22T05:45:54;99105.53;;;12.19;61.45
71151;BME280;59071;42.138;24.768;2023-11-22T05:48:20;99127.28;;;12.04;61.93
71151;BME280;59071;42.138;24.768;2023-11-22T05:50:46;99136.97;;;12.29;61.49
71151;BME280;59071;42.138;24.768;2023-11-22T05:53:12;99130.63;;;12.42;60.09
71151;BME280;59071;42.138;24.768;2023-11-22T05:55:38;99143.38;;;12.40;61.05
71151;BME280;59071;42.138;24.768;2023-11-22T05:58:04;99148.38;;;12.48;60.65
71151;BME280;59071;42.138;24.768;2023-11-22T06:00:29;99139.66;;;12.41;60.53
71151;BME280;59071;42.138;24.768;2023-11-22T06:02:54;99143.75;;;12.55;59.69
71151;BME280;59071;42.138;24.768;2023-11-22T06:05:21;99142.94;;;12.78;59.46
71151;BME280;59071;42.138;24.768;2023-11-22T06:07:46;99148.03;;;12.80;59.16
71151;BME280;59071;42.138;24.768;2023-11-22T06:10:13;99142.81;;;12.85;58.51
71151;BME280;59071;42.138;24.768;2023-11-22T06:12:41;99137.47;;;12.61;58.33
71151;BME280;59071;42.138;24.768;2023-11-22T06:15:07;99124.34;;;12.36;60.16
71151;BME280;59071;42.138;24.768;2023-11-22T06:17:33;99132.44;;;12.29;59.87
71151;BME280;59071;42.138;24.768;2023-11-22T06:19:58;99134.06;;;12.19;60.85
71151;BME280;59071;42.138;24.768;2023-11-22T06:22:23;99145.19;;;12.16;61.68
71151;BME280;59071;42.138;24.768;2023-11-22T06:24:49;99142.44;;;12.46;61.01
71151;BME280;59071;42.138;24.768;2023-11-22T06:27:14;99136.59;;;12.25;60.95
71151;BME280;59071;42.138;24.768;2023-11-22T06:29:42;99142.16;;;12.12;61.89
71151;BME280;59071;42.138;24.768;2023-11-22T06:32:12;99133.50;;;12.40;60.98
71151;BME280;59071;42.138;24.768;2023-11-22T06:34:37;99155.47;;;12.12;62.30
71151;BME280;59071;42.138;24.768;2023-11-22T06:37:03;99164.81;;;12.45;62.86
71151;BME280;59071;42.138;24.768;2023-11-22T06:39:29;99175.91;;;12.72;62.28
71151;BME280;59071;42.138;24.768;2023-11-22T06:41:54;99178.22;;;12.80;62.19
71151;BME280;59071;42.138;24.768;2023-11-22T06:44:20;99184.22;;;12.64;63.02
71151;BME280;59071;42.138;24.768;2023-11-22T06:46:46;99186.94;;;12.87;63.04
71151;BME280;59071;42.138;24.768;2023-11-22T06:49:11;99190.50;;;13.17;62.16
71151;BME280;59071;42.138;24.768;2023-11-22T06:51:37;99197.38;;;13.36;60.71
71151;BME280;59071;42.138;24.768;2023-11-22T06:54:02;99202.72;;;13.36;60.22
71151;BME280;59071;42.138;24.768;2023-11-22T06:56:28;99200.53;;;13.21;61.01
71151;BME280;59071;42.138;24.768;2023-11-22T06:58:54;99202.72;;;13.24;60.56
71151;BME280;59071;42.138;24.768;2023-11-22T07:01:22;99206.78;;;13.27;61.06
71151;BME280;59071;42.138;24.768;2023-11-22T07:03:48;99215.72;;;13.21;61.30
71151;BME280;59071;42.138;24.768;2023-11-22T07:06:14;99211.91;;;13.05;61.64
71151;BME280;59071;42.138;24.768;2023-11-22T07:08:40;99210.72;;;13.13;60.21
71151;BME280;59071;42.138;24.768;2023-11-22T07:11:06;99199.25;;;13.12;59.21
71151;BME280;59071;42.138;24.768;2023-11-22T07:13:34;99177.63;;;13.02;60.21
71151;BME280;59071;42.138;24.768;2023-11-22T07:16:01;99179.59;;;12.59;61.40
71151;BME280;59071;42.138;24.768;2023-11-22T07:18:27;99177.94;;;12.46;62.70
71151;BME280;59071;42.138;24.768;2023-11-22T07:20:53;99192.59;;;12.67;62.43
71151;BME280;59071;42.138;24.768;2023-11-22T07:23:20;99192.16;;;12.94;61.22
71151;BME280;59071;42.138;24.768;2023-11-22T07:25:50;99196.69;;;13.05;61.19
71151;BME280;59071;42.138;24.768;2023-11-22T07:28:16;99195.75;;;13.23;61.16
71151;BME280;59071;42.138;24.768;2023-11-22T07:30:41;99201.22;;;13.40;61.16
71151;BME280;59071;42.138;24.768;2023-11-22T07:33:07;99205.16;;;13.38;61.03
71151;BME280;59071;42.138;24.768;2023-11-22T07:35:32;99202.72;;;13.36;60.53
71151;BME280;59071;42.138;24.768;2023-11-22T07:37:58;99199.34;;;13.53;59.95
71151;BME280;59071;42.138;24.768;2023-11-22T07:40:23;99200.38;;;13.52;60.13
71151;BME280;59071;42.138;24.768;2023-11-22T07:42:49;99199.91;;;13.55;59.77
71151;BME280;59071;42.138;24.768;2023-11-22T07:45:14;99203.91;;;13.40;60.39
71151;BME280;59071;42.138;24.768;2023-11-22T07:47:41;99208.97;;;13.42;60.84
71151;BME280;59071;42.138;24.768;2023-11-22T07:50:10;99203.19;;;13.09;61.87
71151;BME280;59071;42.138;24.768;2023-11-22T07:52:36;99200.72;;;13.55;61.03
71151;BME280;59071;42.138;24.768;2023-11-22T07:55:04;99217.91;;;13.59;61.32
71151;BME280;59071;42.138;24.768;2023-11-22T07:57:35;99218.63;;;13.55;61.61
71151;BME280;59071;42.138;24.768;2023-11-22T08:00:01;99215.13;;;13.54;60.97
71151;BME280;59071;42.138;24.768;2023-11-22T08:02:29;99217.91;;;13.59;61.59
71151;BME280;59071;42.138;24.768;2023-11-22T08:04:56;99218.63;;;13.43;62.67
71151;BME280;59071;42.138;24.768;2023-11-22T08:07:21;99216.19;;;13.29;62.83
71151;BME280;59071;42.138;24.768;2023-11-22T08:09:48;99217.13;;;13.23;63.58
71151;BME280;59071;42.138;24.768;2023-11-22T08:12:13;99223.84;;;13.26;63.59
71151;BME280;59071;42.138;24.768;2023-11-22T08:14:39;99231.06;;;13.25;64.52
71151;BME280;59071;42.138;24.768;2023-11-22T08:17:06;99226.06;;;13.17;64.31
71151;BME280;59071;42.138;24.768;2023-11-22T08:19:31;99235.59;;;13.13;64.15
71151;BME280;59071;42.138;24.768;2023-11-22T08:21:57;99227.59;;;13.37;63.45
71151;BME280;59071;42.138;24.768;2023-11-22T08:24:22;99225.13;;;13.59;62.86
71151;BME280;59071;42.138;24.768;2023-11-22T08:26:48;99220.78;;;13.69;62.28
71151;BME280;59071;42.138;24.768;2023-11-22T08:29:13;99228.69;;;13.64;62.36
71151;BME280;59071;42.138;24.768;2023-11-22T08:31:40;99220.09;;;13.62;62.73
71151;BME280;59071;42.138;24.768;2023-11-22T08:34:05;99221.38;;;13.72;62.75
71151;BME280;59071;42.138;24.768;2023-11-22T08:36:32;99217.63;;;13.73;62.24
71151;BME280;59071;42.138;24.768;2023-11-22T08:39:00;99219.28;;;13.74;62.29
71151;BME280;59071;42.138;24.768;2023-11-22T08:41:27;99220.16;;;13.91;62.39
71151;BME280;59071;42.138;24.768;2023-11-22T08:43:54;99224.31;;;13.99;61.92
71151;BME280;59071;42.138;24.768;2023-11-22T08:46:20;99223.25;;;14.00;62.54
71151;BME280;59071;42.138;24.768;2023-11-22T08:48:45;99222.00;;;13.91;62.41
71151;BME280;59071;42.138;24.768;2023-11-22T08:51:11;99241.94;;;13.83;63.50
71151;BME280;59071;42.138;24.768;2023-11-22T08:53:36;99231.84;;;13.73;63.24
71151;BME280;59071;42.138;24.768;2023-11-22T08:56:03;99235.19;;;13.68;63.87
71151;BME280;59071;42.138;24.768;2023-11-22T08:58:31;99236.16;;;13.62;64.42
71151;BME280;59071;42.138;24.768;2023-11-22T09:00:56;99230.19;;;13.72;65.23
71151;BME280;59071;42.138;24.768;2023-11-22T09:03:23;99223.47;;;13.69;64.68
71151;BME280;59071;42.138;24.768;2023-11-22T09:05:49;99230.91;;;13.67;64.60
71151;BME280;59071;42.138;24.768;2023-11-22T09:08:15;99228.53;;;13.42;65.48
71151;BME280;59071;42.138;24.768;2023-11-22T09:10:41;99225.81;;;13.66;64.95
71151;BME280;59071;42.138;24.768;2023-11-22T09:13:08;99232.09;;;13.60;65.76
71151;BME280;59071;42.138;24.768;2023-11-22T09:15:34;99227.59;;;13.89;65.24
71151;BME280;59071;42.138;24.768;2023-11-22T09:18:00;99223.59;;;14.03;64.82
71151;BME280;59071;42.138;24.768;2023-11-22T09:20:27;99232.94;;;14.18;63.83
71151;BME280;59071;42.138;24.768;2023-11-22T09:22:53;99239.88;;;14.02;64.27
71151;BME280;59071;42.138;24.768;2023-11-22T09:25:24;99239.88;;;14.02;63.53
71151;BME280;59071;42.138;24.768;2023-11-22T09:27:53;99237.91;;;13.97;63.64
71151;BME280;59071;42.138;24.768;2023-11-22T09:30:25;99240.00;;;14.24;61.58
71151;BME280;59071;42.138;24.768;2023-11-22T09:33:09;99246.94;;;14.37;60.77
71151;BME280;59071;42.138;24.768;2023-11-22T09:35:36;99242.09;;;14.51;60.64
71151;BME280;59071;42.138;24.768;2023-11-22T09:38:04;99240.69;;;14.60;61.66
71151;BME280;59071;42.138;24.768;2023-11-22T09:40:31;99247.22;;;14.52;60.14
71151;BME280;59071;42.138;24.768;2023-11-22T09:43:00;99246.88;;;14.48;60.60
71151;BME280;59071;42.138;24.768;2023-11-22T09:45:27;99253.63;;;14.51;59.90
71151;BME280;59071;42.138;24.768;2023-11-22T09:47:53;99239.69;;;14.49;58.92
71151;BME280;59071;42.138;24.768;2023-11-22T09:50:27;99245.16;;;14.71;59.10
71151;BME280;59071;42.138;24.768;2023-11-22T09:52:55;99246.38;;;14.63;59.37
71151;BME280;59071;42.138;24.768;2023-11-22T09:55:28;99255.41;;;14.91;58.28
71151;BME280;59071;42.138;24.768;2023-11-22T09:57:53;99248.97;;;14.92;59.03
71151;BME280;59071;42.138;24.768;2023-11-22T10:00:19;99254.19;;;14.99;58.06
71151;BME280;59071;42.138;24.768;2023-11-22T10:02:47;99239.16;;;14.98;58.09
71151;BME280;59071;42.138;24.768;2023-11-22T10:05:13;99240.22;;;15.14;57.60
71151;BME280;59071;42.138;24.768;2023-11-22T10:07:39;99236.53;;;15.20;57.68
71151;BME280;59071;42.138;24.768;2023-11-22T10:10:05;99235.75;;;15.41;57.25
71151;BME280;59071;42.138;24.768;2023-11-22T10:12:32;99244.00;;;15.57;56.98
71151;BME280;59071;42.138;24.768;2023-11-22T10:15:15;99237.97;;;15.67;56.22
71151;BME280;59071;42.138;24.768;2023-11-22T10:17:47;99243.97;;;15.52;55.86
71151;BME280;59071;42.138;24.768;2023-11-22T10:20:13;99231.72;;;15.39;56.87
71151;BME280;59071;42.138;24.768;2023-11-22T10:22:45;99229.59;;;15.41;56.94
71151;BME280;59071;42.138;24.768;2023-11-22T10:25:13;99237.34;;;15.59;57.37
71151;BME280;59071;42.138;24.768;2023-11-22T10:27:39;99243.88;;;15.47;57.59
71151;BME280;59071;42.138;24.768;2023-11-22T10:30:07;99239.25;;;15.42;57.64
71151;BME280;59071;42.138;24.768;2023-11-22T10:32:37;99228.91;;;15.51;57.06
71151;BME280;59071;42.138;24.768;2023-11-22T10:35:03;99238.53;;;15.47;56.34
71151;BME280;59071;42.138;24.768;2023-11-22T10:37:29;99224.09;;;15.31;57.25
71151;BME280;59071;42.138;24.768;2023-11-22T10:39:54;99232.03;;;15.42;57.35
71151;BME280;59071;42.138;24.768;2023-11-22T10:42:21;99244.38;;;15.43;58.51
71151;BME280;59071;42.138;24.768;2023-11-22T10:44:48;99240.84;;;15.60;56.71
71151;BME280;59071;42.138;24.768;2023-11-22T10:47:15;99248.06;;;15.76;56.39
71151;BME280;59071;42.138;24.768;2023-11-22T10:49:42;99242.84;;;15.70;57.18
71151;BME280;59071;42.138;24.768;2023-11-22T10:52:12;99234.56;;;15.71;57.04
71151;BME280;59071;42.138;24.768;2023-11-22T10:54:38;99235.94;;;15.74;56.00
71151;BME280;59071;42.138;24.768;2023-11-22T10:57:06;99237.72;;;15.68;56.69
71151;BME280;59071;42.138;24.768;2023-11-22T10:59:32;99244.06;;;15.79;56.31
71151;BME280;59071;42.138;24.768;2023-11-22T11:02:01;99248.28;;;15.97;56.39
71151;BME280;59071;42.138;24.768;2023-11-22T11:04:54;99245.44;;;16.03;56.10
71151;BME280;59071;42.138;24.768;2023-11-22T11:07:23;99248.66;;;16.06;56.44
71151;BME280;59071;42.138;24.768;2023-11-22T11:09:54;99244.50;;;16.20;56.04
71151;BME280;59071;42.138;24.768;2023-11-22T11:12:22;99239.59;;;16.12;56.56
71151;BME280;59071;42.138;24.768;2023-11-22T11:14:49;99232.63;;;16.11;56.99
71151;BME280;59071;42.138;24.768;2023-11-22T11:17:15;99230.66;;;16.28;56.27
71151;BME280;59071;42.138;24.768;2023-11-22T11:19:40;99241.94;;;16.30;56.35
71151;BME280;59071;42.138;24.768;2023-11-22T11:22:10;99251.31;;;16.55;56.09
71151;BME280;59071;42.138;24.768;2023-11-22T11:24:39;99262.44;;;16.69;55.61
71151;BME280;59071;42.138;24.768;2023-11-22T11:27:06;99254.00;;;16.55;55.05
71151;BME280;59071;42.138;24.768;2023-11-22T11:29:33;99269.47;;;16.70;54.53
71151;BME280;59071;42.138;24.768;2023-11-22T11:31:59;99273.56;;;16.77;55.12
71151;BME280;59071;42.138;24.768;2023-11-22T11:34:27;99270.44;;;16.64;55.20
71151;BME280;59071;42.138;24.768;2023-11-22T11:36:54;99260.63;;;16.74;55.43
71151;BME280;59071;42.138;24.768;2023-11-22T11:39:25;99258.72;;;16.75;55.05
71151;BME280;59071;42.138;24.768;2023-11-22T11:42:07;99245.84;;;16.77;55.36
71151;BME280;59071;42.138;24.768;2023-11-22T11:44:33;99255.19;;;16.96;54.59
71151;BME280;59071;42.138;24.768;2023-11-22T11:46:58;99263.22;;;16.64;55.54
71151;BME280;59071;42.138;24.768;2023-11-22T11:49:24;99262.00;;;16.50;55.23
71151;BME280;59071;42.138;24.768;2023-11-22T11:51:50;99261.53;;;16.58;55.51
71151;BME280;59071;42.138;24.768;2023-11-22T11:54:16;99264.88;;;16.70;54.94
71151;BME280;59071;42.138;24.768;2023-11-22T11:56:41;99272.84;;;16.87;55.52
71151;BME280;59071;42.138;24.768;2023-11-22T11:59:08;99255.31;;;16.52;55.14
71151;BME280;59071;42.138;24.768;2023-11-22T12:01:35;99257.50;;;16.55;55.08
71151;BME280;59071;42.138;24.768;2023-11-22T12:04:01;99264.78;;;16.33;56.25
71151;BME280;59071;42.138;24.768;2023-11-22T12:06:28;99265.19;;;16.47;56.34
71151;BME280;59071;42.138;24.768;2023-11-22T12:08:54;99263.72;;;16.88;55.50
71151;BME280;59071;42.138;24.768;2023-11-22T12:11:19;99261.53;;;17.17;54.94
71151;BME280;59071;42.138;24.768;2023-11-22T12:13:45;99257.53;;;17.25;54.51
71151;BME280;59071;42.138;24.768;2023-11-22T12:16:16;99245.72;;;17.79;53.51
71151;BME280;59071;42.138;24.768;2023-11-22T12:18:46;99248.69;;;17.30;53.99
71151;BME280;59071;42.138;24.768;2023-11-22T12:21:13;99247.13;;;17.39;53.75
71151;BME280;59071;42.138;24.768;2023-11-22T12:23:40;99250.88;;;17.38;54.19
71151;BME280;59071;42.138;24.768;2023-11-22T12:26:11;99254.94;;;17.46;54.02
71151;BME280;59071;42.138;24.768;2023-11-22T12:28:39;99244.38;;;17.76;53.58
71151;BME280;59071;42.138;24.768;2023-11-22T12:31:09;99254.94;;;17.88;53.81
71151;BME280;59071;42.138;24.768;2023-11-22T12:33:38;99245.38;;;18.33;55.32
71151;BME280;59071;42.138;24.768;2023-11-22T12:36:06;99244.06;;;18.56;52.09
71151;BME280;59071;42.138;24.768;2023-11-22T12:38:32;99237.59;;;18.63;51.30
71151;BME280;59071;42.138;24.768;2023-11-22T12:40:59;99247.88;;;18.81;51.37
71151;BME280;59071;42.138;24.768;2023-11-22T12:43:25;99246.25;;;19.01;51.13
71151;BME280;59071;42.138;24.768;2023-11-22T12:46:05;99261.59;;;19.05;50.96
71151;BME280;59071;42.138;24.768;2023-11-22T12:48:38;99262.41;;;18.95;50.36